Bighill, Kentucky
Current Conditions -  °F | °C
As of 3:55 PM on Tuesday 25 Nov 2014 (Local Time) from KI39 Reporting Station
Clear Clear  
Wind Chill: 45°   Ceiling: Unl
Heat Index: 48°   Visibility: 10mi
Dew Point: 30°   Wind: 8mph
Humidity: 50%   Direction: 290°WNW
Pressure: 30.1"   Gusts: NA
Location:  37.55°N, 84.21°W
Report Text: KI39 252055Z AUTO 29007KT 10SM CLR 09/M01 A3010 RMK AO2
Loading
Personal Weather Stations






























Interactive Weather Map New forecast layout! Learn more

10-Day Weather Forecast

Advertisements
Track Severe Weather on mobile